Time;durP1;ratioP1;P1;durP2;ratioP2;P2;SDS_P1;SDS_P2;PMS_P1;PMS_P2;Temp;Humidity;BMP_temperature;BMP_pressure;BME280_temperature;BME280_humidity;BME280_pressure;Samples;Min_cycle;Max_cycle;Signal;HPM_P1;HPM_P2
2020/12/31 00:02:14;;;;;;;9.68;3.83;;;23.50;56.40;;;;;;6395478;22;20096;-74
2020/12/31 00:04:41;;;;;;;12.93;3.60;;;23.50;56.50;;;;;;6397427;22;20350;-65
2020/12/31 00:07:08;;;;;;;13.20;3.10;;;23.50;56.50;;;;;;6394428;22;20002;-70
2020/12/31 00:09:35;;;;;;;13.55;4.20;;;23.50;56.50;;;;;;6397019;22;20010;-65
2020/12/31 00:12:03;;;;;;;9.95;3.67;;;23.40;56.50;;;;;;6395825;22;19998;-65
2020/12/31 00:14:30;;;;;;;10.45;3.25;;;23.40;56.60;;;;;;6397439;22;20099;-71
2020/12/31 00:16:57;;;;;;;7.55;2.53;;;23.40;56.60;;;;;;6396082;22;20009;-66
2020/12/31 00:19:23;;;;;;;10.95;3.70;;;23.40;56.60;;;;;;6368187;22;20314;-65
2020/12/31 00:21:50;;;;;;;8.30;3.10;;;23.40;56.60;;;;;;6396460;22;20010;-67
2020/12/31 00:24:16;;;;;;;10.55;3.65;;;23.40;56.70;;;;;;6395337;22;20008;-70
2020/12/31 00:26:43;;;;;;;8.05;2.65;;;23.40;56.70;;;;;;6396723;22;20501;-70
2020/12/31 00:29:09;;;;;;;8.30;2.33;;;23.40;56.80;;;;;;6395920;22;20076;-65
2020/12/31 00:31:36;;;;;;;11.05;2.90;;;23.40;56.80;;;;;;6397166;22;19998;-72
2020/12/31 00:34:04;;;;;;;9.05;2.97;;;23.30;56.80;;;;;;6395569;22;20002;-68
2020/12/31 00:36:31;;;;;;;10.68;2.95;;;23.30;56.90;;;;;;6396671;22;19998;-72
2020/12/31 00:38:57;;;;;;;17.17;3.50;;;23.30;56.90;;;;;;6396759;22;19994;-73
2020/12/31 00:41:24;;;;;;;6.47;3.05;;;23.30;56.90;;;;;;6395392;22;20087;-73
2020/12/31 00:43:50;;;;;;;5.78;3.08;;;23.30;56.90;;;;;;6397190;22;20022;-65
2020/12/31 00:46:17;;;;;;;10.82;3.10;;;23.30;56.90;;;;;;6395065;22;20081;-65
2020/12/31 00:48:44;;;;;;;13.65;4.30;;;23.30;56.90;;;;;;6396737;22;20002;-64
2020/12/31 00:51:11;;;;;;;10.70;3.42;;;23.20;56.90;;;;;;6395494;22;19994;-65
2020/12/31 00:53:37;;;;;;;9.00;2.83;;;23.20;56.90;;;;;;6396011;22;20026;-66
2020/12/31 00:56:04;;;;;;;8.05;2.50;;;23.20;56.90;;;;;;6395830;22;20465;-65
2020/12/31 00:58:30;;;;;;;9.27;2.97;;;23.20;56.90;;;;;;6395861;22;19998;-65
2020/12/31 01:00:57;;;;;;;8.35;3.00;;;23.20;57.00;;;;;;6396570;22;20006;-65
2020/12/31 01:03:23;;;;;;;8.38;3.55;;;23.20;56.90;;;;;;6395798;22;19998;-65
2020/12/31 01:05:50;;;;;;;5.85;2.55;;;23.10;56.90;;;;;;6397035;22;20026;-64
2020/12/31 01:08:16;;;;;;;7.38;2.63;;;23.20;57.60;;;;;;6396067;22;20005;-64
2020/12/31 01:10:43;;;;;;;11.88;3.42;;;23.20;57.00;;;;;;6396290;22;19998;-65
2020/12/31 01:13:10;;;;;;;10.50;3.50;;;23.10;57.00;;;;;;6395412;22;19998;-71
2020/12/31 01:15:37;;;;;;;13.25;3.15;;;23.10;57.00;;;;;;6396378;22;20445;-65
2020/12/31 01:18:04;;;;;;;11.90;3.60;;;23.10;57.10;;;;;;6368635;22;20338;-65
2020/12/31 01:20:31;;;;;;;6.15;2.63;;;23.10;57.10;;;;;;6395751;22;20446;-65
2020/12/31 01:22:57;;;;;;;11.93;3.88;;;23.10;57.20;;;;;;6397482;22;20002;-65
2020/12/31 01:25:24;;;;;;;10.07;2.95;;;23.10;57.20;;;;;;6395177;22;20014;-68
2020/12/31 01:27:50;;;;;;;11.45;3.17;;;23.10;57.30;;;;;;6395724;22;20069;-65
2020/12/31 01:30:17;;;;;;;7.35;3.50;;;23.10;57.30;;;;;;6395346;22;20046;-65
2020/12/31 01:32:44;;;;;;;7.53;3.00;;;23.00;57.30;;;;;;6396650;22;20008;-75
2020/12/31 01:35:10;;;;;;;9.05;3.08;;;23.10;57.50;;;;;;6396120;22;19994;-66
2020/12/31 01:37:37;;;;;;;10.07;3.63;;;23.10;57.50;;;;;;6395863;22;20077;-66
2020/12/31 01:40:04;;;;;;;11.32;4.13;;;23.10;57.50;;;;;;6396495;22;19994;-68
2020/12/31 01:42:30;;;;;;;8.30;3.13;;;23.10;57.50;;;;;;6394733;22;20014;-69
2020/12/31 01:44:57;;;;;;;10.48;3.88;;;23.00;57.50;;;;;;6395560;22;20026;-66
2020/12/31 01:47:24;;;;;;;10.95;4.53;;;23.00;57.50;;;;;;6395096;22;20013;-74
2020/12/31 01:49:52;;;;;;;17.30;5.05;;;23.00;57.50;;;;;;6395861;22;19998;-64
2020/12/31 01:52:20;;;;;;;8.18;3.10;;;23.00;57.50;;;;;;6395708;22;20392;-67
2020/12/31 01:54:47;;;;;;;13.50;3.17;;;23.00;57.50;;;;;;6395451;22;20006;-67
2020/12/31 01:57:14;;;;;;;12.20;4.78;;;23.00;57.50;;;;;;6367596;22;20059;-65
2020/12/31 01:59:41;;;;;;;11.73;4.32;;;23.00;57.50;;;;;;6394924;22;20325;-66
2020/12/31 02:02:09;;;;;;;10.30;3.38;;;23.00;57.50;;;;;;6396093;22;20014;-65
2020/12/31 02:04:37;;;;;;;12.57;3.70;;;23.00;57.50;;;;;;6394806;22;20360;-65
2020/12/31 02:07:06;;;;;;;9.80;3.65;;;23.00;57.50;;;;;;6395887;22;19994;-64
2020/12/31 02:09:32;;;;;;;10.02;3.80;;;23.00;57.60;;;;;;6395046;22;19994;-65
2020/12/31 02:12:05;;;;;;;10.02;4.20;;;23.00;57.60;;;;;;6395030;22;20012;-70
2020/12/31 02:14:32;;;;;;;10.10;3.05;;;23.00;57.60;;;;;;6396034;22;19998;-65
2020/12/31 02:16:59;;;;;;;7.78;3.30;;;23.00;57.70;;;;;;6394571;22;20084;-65
2020/12/31 02:19:26;;;;;;;8.93;2.95;;;22.90;57.80;;;;;;6395864;22;20006;-66
2020/12/31 02:21:53;;;;;;;10.35;3.45;;;22.90;57.80;;;;;;6394923;22;20073;-65
2020/12/31 02:24:20;;;;;;;7.20;3.25;;;22.90;57.80;;;;;;6396446;22;20037;-65
2020/12/31 02:26:49;;;;;;;11.90;3.55;;;22.90;57.80;;;;;;6395040;22;20014;-64
2020/12/31 02:29:17;;;;;;;10.10;3.38;;;22.90;58.50;;;;;;6394960;22;20005;-65
2020/12/31 02:31:46;;;;;;;7.45;2.22;;;22.90;57.90;;;;;;6396241;22;20005;-64
2020/12/31 02:34:13;;;;;;;8.75;2.83;;;22.90;58.00;;;;;;6394268;22;20075;-79
2020/12/31 02:36:40;;;;;;;12.18;3.25;;;22.90;58.00;;;;;;6367794;22;20433;-65
2020/12/31 02:39:11;;;;;;;5.40;2.80;;;22.90;58.10;;;;;;6394512;22;19998;-79
2020/12/31 02:41:39;;;;;;;7.47;2.58;;;22.80;58.10;;;;;;6395881;22;20014;-65
2020/12/31 02:44:06;;;;;;;9.35;2.83;;;22.90;58.20;;;;;;6395172;22;20002;-64
2020/12/31 02:46:33;;;;;;;7.63;2.45;;;22.90;58.20;;;;;;6394761;22;19986;-65
2020/12/31 02:49:00;;;;;;;7.60;2.65;;;22.90;58.20;;;;;;6396020;22;20025;-65
2020/12/31 02:51:27;;;;;;;7.80;2.70;;;22.80;58.20;;;;;;6394590;22;20001;-68
2020/12/31 02:53:53;;;;;;;12.27;3.85;;;22.80;58.40;;;;;;6395483;22;20002;-68
2020/12/31 02:56:21;;;;;;;8.77;2.88;;;22.80;58.20;;;;;;6394224;22;20352;-64
2020/12/31 02:58:49;;;;;;;6.20;2.15;;;22.80;58.30;;;;;;6395507;22;20001;-65
2020/12/31 03:01:17;;;;;;;14.30;3.40;;;22.80;58.90;;;;;;6394817;22;20020;-77
2020/12/31 03:03:43;;;;;;;12.65;4.68;;;22.80;58.30;;;;;;6395415;22;19998;-78
2020/12/31 03:06:49;;;;;;;12.25;3.83;;;22.80;58.30;;;;;;6391011;22;20006;-65
2020/12/31 03:09:55;;;;;;;8.25;3.78;;;22.70;58.30;;;;;;6394197;22;20467;-77
2020/12/31 03:13:01;;;;;;;10.90;2.78;;;22.70;58.70;;;;;;6394934;22;20036;-65
2020/12/31 03:16:08;;;;;;;15.75;3.70;;;22.70;58.30;;;;;;6395275;22;20405;-65
2020/12/31 03:19:14;;;;;;;4.68;2.28;;;22.70;58.30;;;;;;6395468;22;20219;-65
2020/12/31 03:22:20;;;;;;;9.27;2.95;;;22.70;58.30;;;;;;6395951;22;20382;-66
2020/12/31 03:25:26;;;;;;;7.88;2.55;;;22.60;58.40;;;;;;6397382;22;20022;-65
2020/12/31 03:28:32;;;;;;;8.77;3.20;;;22.60;58.40;;;;;;6396346;22;20017;-65
2020/12/31 03:30:58;;;;;;;15.27;4.57;;;22.60;58.40;;;;;;6395580;22;20059;-79
2020/12/31 03:33:25;;;;;;;9.10;3.40;;;22.60;58.40;;;;;;6396641;22;20002;-67
2020/12/31 03:35:52;;;;;;;8.75;3.42;;;22.60;58.50;;;;;;6396422;22;20128;-67
2020/12/31 03:38:21;;;;;;;7.82;4.43;;;22.60;58.50;;;;;;6396525;22;20439;-80
2020/12/31 03:40:48;;;;;;;10.30;3.58;;;22.60;58.50;;;;;;6368927;22;20013;-65
2020/12/31 03:43:14;;;;;;;16.77;4.75;;;22.50;58.50;;;;;;6395834;22;20051;-64
2020/12/31 03:45:42;;;;;;;10.60;3.85;;;22.60;58.60;;;;;;6397932;22;20081;-65
2020/12/31 03:48:09;;;;;;;7.20;3.10;;;22.60;58.60;;;;;;6396574;22;20586;-79
2020/12/31 03:50:37;;;;;;;11.95;3.38;;;22.60;58.60;;;;;;6397523;22;20371;-65
2020/12/31 03:53:04;;;;;;;12.30;5.97;;;22.60;58.60;;;;;;6396461;22;19998;-65
2020/12/31 03:55:31;;;;;;;16.77;8.02;;;22.50;58.50;;;;;;6397593;22;20306;-73
2020/12/31 03:57:58;;;;;;;18.52;10.65;;;22.50;58.60;;;;;;6396514;22;20004;-64
2020/12/31 04:00:24;;;;;;;16.50;7.63;;;22.50;58.60;;;;;;6395727;22;19994;-66
2020/12/31 04:02:53;;;;;;;18.35;7.13;;;22.50;58.60;;;;;;6396942;22;20477;-65
2020/12/31 04:05:19;;;;;;;9.38;5.03;;;22.50;58.70;;;;;;6395526;22;19998;-65
2020/12/31 04:07:46;;;;;;;13.55;4.53;;;22.50;58.70;;;;;;6397210;22;20017;-66
2020/12/31 04:10:12;;;;;;;11.23;4.00;;;22.50;58.70;;;;;;6395947;22;20340;-67
2020/12/31 04:12:39;;;;;;;12.50;4.15;;;22.50;58.70;;;;;;6396680;22;20410;-66
2020/12/31 04:15:05;;;;;;;16.45;7.22;;;22.50;58.60;;;;;;6396948;22;20378;-66
2020/12/31 04:17:32;;;;;;;19.42;9.55;;;22.50;58.60;;;;;;6395865;22;20123;-66
2020/12/31 04:19:59;;;;;;;19.08;8.23;;;22.50;58.60;;;;;;6398403;22;20198;-66
2020/12/31 04:22:27;;;;;;;12.10;6.65;;;22.50;58.90;;;;;;6395682;22;20020;-67
2020/12/31 04:24:54;;;;;;;13.65;5.55;;;22.50;58.70;;;;;;6396814;22;20002;-65
2020/12/31 04:27:21;;;;;;;9.10;4.15;;;22.50;58.70;;;;;;6395354;22;20341;-66
2020/12/31 04:29:47;;;;;;;16.98;5.97;;;22.50;58.80;;;;;;6396618;22;20006;-66
2020/12/31 04:32:14;;;;;;;10.25;3.80;;;22.50;58.70;;;;;;6396264;22;20022;-73
2020/12/31 04:34:40;;;;;;;9.20;2.70;;;22.50;58.70;;;;;;6396101;22;20097;-67
2020/12/31 04:37:07;;;;;;;13.00;3.55;;;22.50;58.80;;;;;;6397258;22;20001;-67
2020/12/31 04:39:34;;;;;;;10.50;3.80;;;22.40;58.70;;;;;;6395826;22;19990;-66
2020/12/31 04:42:00;;;;;;;13.32;6.93;;;22.40;58.70;;;;;;6396852;22;20037;-67
2020/12/31 04:44:28;;;;;;;15.38;6.85;;;22.40;58.80;;;;;;6395413;22;19998;-76
2020/12/31 04:46:56;;;;;;;14.45;5.22;;;22.40;58.90;;;;;;6396853;22;20001;-66
2020/12/31 04:49:29;;;;;;;15.75;4.30;;;22.50;59.00;;;;;;6395952;22;20058;-71
2020/12/31 04:51:56;;;;;;;12.20;4.53;;;22.50;59.10;;;;;;6397404;22;20077;-70
2020/12/31 04:54:23;;;;;;;7.97;3.80;;;22.50;59.10;;;;;;6397724;22;20002;-67
2020/12/31 04:56:50;;;;;;;9.38;3.60;;;22.50;59.20;;;;;;6395761;22;19998;-64
2020/12/31 04:59:16;;;;;;;10.85;4.43;;;22.50;59.20;;;;;;6397065;22;19998;-65
2020/12/31 05:01:46;;;;;;;11.45;4.18;;;22.50;59.20;;;;;;6396151;22;20379;-72
2020/12/31 05:04:14;;;;;;;9.48;3.75;;;22.40;59.10;;;;;;6397702;22;20122;-75
2020/12/31 05:07:20;;;;;;;15.05;3.78;;;22.40;59.10;;;;;;6397111;22;19994;-67
2020/12/31 05:10:29;;;;;;;11.82;4.28;;;22.40;59.00;;;;;;6397126;22;20330;-77
2020/12/31 05:13:35;;;;;;;10.30;3.08;;;22.50;59.00;;;;;;6396953;22;20051;-68
2020/12/31 05:16:21;;;;;;;;;;;22.40;59.00;;;;;;6398756;22;20005;-74
2020/12/31 05:19:36;;;;;;;13.50;4.53;;;22.50;59.00;;;;;;6396202;22;19908;-66
2020/12/31 05:22:51;;;;;;;12.52;3.70;;;22.50;59.10;;;;;;6397467;22;20460;-80
2020/12/31 05:25:57;;;;;;;20.42;10.48;;;22.50;59.20;;;;;;6397888;22;20021;-79
2020/12/31 05:29:12;;;;;;;23.42;11.32;;;22.50;59.40;;;;;;6396623;22;20010;-66
2020/12/31 05:32:31;;;;;;;74.13;15.30;;;22.50;59.50;;;;;;6396128;22;20005;-73
2020/12/31 05:35:37;;;;;;;75.43;15.50;;;22.50;59.60;;;;;;6395172;22;20456;-79
2020/12/31 05:38:43;;;;;;;40.67;8.93;;;22.60;59.60;;;;;;6397528;22;19994;-65
2020/12/31 05:41:49;;;;;;;29.70;6.50;;;22.60;60.20;;;;;;6396023;22;20006;-66
2020/12/31 05:44:55;;;;;;;20.50;4.85;;;22.60;60.00;;;;;;6395703;22;20009;-67
2020/12/31 05:47:47;;;;;;;17.00;5.13;;;22.60;59.80;;;;;;6397689;22;19994;-67
2020/12/31 05:50:53;;;;;;;14.05;4.28;;;22.70;59.50;;;;;;6396742;22;20313;-66
2020/12/31 05:53:59;;;;;;;11.25;3.75;;;22.70;59.30;;;;;;6395613;22;20001;-66
2020/12/31 05:56:32;;;;;;;7.82;3.28;;;22.80;59.00;;;;;;6396588;22;20017;-66
2020/12/31 05:59:05;;;;;;;9.93;4.15;;;22.90;58.90;;;;;;6397058;22;20006;-67
2020/12/31 06:01:35;;;;;;;7.85;3.20;;;22.90;58.70;;;;;;6396568;22;20017;-69
2020/12/31 06:04:21;;;;;;;66.40;58.55;;;22.90;58.60;;;;;;6397786;22;20001;-68
2020/12/31 06:06:51;;;;;;;49.28;42.22;;;23.00;57.50;;;;;;6396631;22;20081;-68
2020/12/31 06:10:05;;;;;;;47.08;40.10;;;23.00;57.10;;;;;;6395478;22;20055;-66
2020/12/31 06:13:27;;;;;;;36.35;29.00;;;23.10;57.00;;;;;;6395003;22;20008;-68
2020/12/31 06:16:33;;;;;;;23.88;19.08;;;23.10;56.80;;;;;;6393960;22;20083;-75
2020/12/31 06:19:39;;;;;;;19.58;13.98;;;23.20;56.60;;;;;;6396191;22;20063;-76
2020/12/31 06:22:25;;;;;;;;;;;23.30;56.40;;;;;;6395559;22;20010;-76
2020/12/31 06:25:31;;;;;;;15.35;7.68;;;23.30;56.20;;;;;;6396374;22;20226;-70
2020/12/31 06:28:40;;;;;;;12.38;6.78;;;23.40;56.00;;;;;;6393166;22;20736;-69
2020/12/31 06:31:46;;;;;;;17.80;9.20;;;23.50;55.90;;;;;;6391180;22;20005;-70
2020/12/31 06:34:12;;;;;;;12.23;8.05;;;23.60;55.90;;;;;;6396650;22;20002;-67
2020/12/31 06:36:40;;;;;;;12.85;7.07;;;23.60;55.70;;;;;;6394880;22;19994;-68
2020/12/31 06:39:43;;;;;;;16.42;6.82;;;23.60;55.50;;;;;;6396769;22;20452;-72
2020/12/31 06:42:10;;;;;;;11.57;4.43;;;23.70;55.20;;;;;;6368427;22;20083;-71
2020/12/31 06:44:36;;;;;;;11.27;3.33;;;23.70;55.10;;;;;;6395847;22;20066;-67
2020/12/31 06:47:03;;;;;;;14.15;4.32;;;23.70;54.90;;;;;;6396933;22;20090;-69
2020/12/31 06:50:02;;;;;;;21.15;4.80;;;23.70;54.90;;;;;;6395380;22;20017;-67
2020/12/31 06:52:37;;;;;;;18.85;4.10;;;23.70;54.90;;;;;;6311052;22;20058;-67
2020/12/31 06:55:26;;;;;;;21.60;5.07;;;23.70;55.00;;;;;;6370241;22;19998;-68
2020/12/31 06:57:53;;;;;;;18.63;5.10;;;23.70;55.20;;;;;;6398051;22;20009;-71
2020/12/31 07:00:39;;;;;;;21.90;5.45;;;23.70;55.30;;;;;;6397193;22;19994;-71
2020/12/31 07:03:06;;;;;;;14.57;6.55;;;23.80;55.40;;;;;;6395994;22;20016;-70
2020/12/31 07:06:12;;;;;;;20.23;6.15;;;23.80;55.40;;;;;;6398933;22;20277;-67
2020/12/31 07:08:40;;;;;;;12.65;3.70;;;23.90;55.30;;;;;;6399244;22;19998;-66
2020/12/31 07:11:07;;;;;;;11.77;2.88;;;24.00;54.90;;;;;;6398656;22;19994;-69
2020/12/31 07:13:39;;;;;;;10.27;2.83;;;24.00;54.80;;;;;;6399279;22;20300;-68
2020/12/31 07:16:08;;;;;;;13.05;3.30;;;24.00;54.80;;;;;;6370419;22;20006;-72
2020/12/31 07:18:40;;;;;;;15.90;5.15;;;24.00;54.70;;;;;;6371242;22;20016;-75
2020/12/31 07:21:44;;;;;;;14.40;3.72;;;24.10;54.70;;;;;;6370467;22;20010;-75
2020/12/31 07:24:50;;;;;;;11.98;3.55;;;24.10;54.50;;;;;;6369644;22;20010;-75
2020/12/31 07:27:27;;;;;;;16.80;3.10;;;24.10;54.50;;;;;;6398617;22;20014;-75
2020/12/31 07:30:36;;;;;;;13.25;3.90;;;24.10;54.40;;;;;;6398577;22;20006;-74
2020/12/31 07:33:26;;;;;;;14.07;3.25;;;24.10;54.30;;;;;;6397359;22;20009;-76
2020/12/31 07:35:52;;;;;;;8.07;2.47;;;24.10;54.30;;;;;;6398312;22;19994;-75
2020/12/31 07:38:36;;;;;;;13.18;3.42;;;24.20;54.30;;;;;;6369761;22;20495;-75
2020/12/31 07:41:03;;;;;;;10.95;3.08;;;24.10;54.60;;;;;;6397820;22;20041;-73
2020/12/31 07:43:38;;;;;;;11.35;3.10;;;24.20;54.20;;;;;;6398607;22;20520;-76
2020/12/31 07:46:05;;;;;;;13.18;3.67;;;24.20;54.20;;;;;;6369391;22;20084;-76
2020/12/31 07:48:32;;;;;;;12.68;2.97;;;24.30;54.20;;;;;;6398108;22;19994;-76
2020/12/31 07:51:41;;;;;;;12.00;2.90;;;24.30;54.10;;;;;;6397291;22;19998;-72
2020/12/31 07:54:47;;;;;;;11.40;3.65;;;24.40;53.90;;;;;;6397872;22;19993;-75
2020/12/31 07:57:15;;;;;;;6.82;2.72;;;24.50;53.80;;;;;;6398285;22;20001;-72
2020/12/31 08:00:21;;;;;;;14.32;3.88;;;24.60;53.50;;;;;;6396744;22;19997;-66
2020/12/31 08:02:55;;;;;;;;;;;24.60;52.80;;;;;;6397144;22;20043;-68
2020/12/31 08:05:41;;;;;;;16.70;3.72;;;24.70;52.80;;;;;;6397352;22;19933;-71
2020/12/31 08:08:08;;;;;;;14.27;5.90;;;24.80;52.80;;;;;;6367801;22;20010;-68
2020/12/31 08:11:14;;;;;;;12.85;3.17;;;24.80;52.80;;;;;;6396241;22;19998;-69
2020/12/31 08:13:40;;;;;;;;;;;24.90;52.80;;;;;;6397575;22;20032;-69
2020/12/31 08:16:08;;;;;;;11.70;3.55;;;24.90;52.70;;;;;;6396079;22;19901;-70
2020/12/31 08:18:38;;;;;;;9.35;3.47;;;25.00;52.80;;;;;;6397833;22;20001;-69
2020/12/31 08:21:06;;;;;;;7.55;3.55;;;25.00;52.80;;;;;;6367445;22;20543;-68
2020/12/31 08:24:18;;;;;;;8.30;3.17;;;25.10;53.00;;;;;;6397718;22;20005;-69
2020/12/31 08:27:25;;;;;;;9.70;3.00;;;25.10;53.00;;;;;;6395162;22;20022;-69
2020/12/31 08:29:53;;;;;;;11.43;3.75;;;25.10;53.10;;;;;;6395970;22;20001;-70
2020/12/31 08:33:05;;;;;;;10.95;5.25;;;25.20;53.20;;;;;;6397227;22;20005;-79
2020/12/31 08:35:46;;;;;;;11.07;3.75;;;25.20;53.20;;;;;;6395388;22;20002;-70
2020/12/31 08:38:36;;;;;;;10.63;3.55;;;25.20;53.20;;;;;;6395032;22;19998;-68
2020/12/31 08:41:07;;;;;;;9.57;3.40;;;25.30;53.00;;;;;;6396112;22;20020;-69
2020/12/31 08:43:38;;;;;;;11.65;3.00;;;25.30;52.60;;;;;;6396571;22;19997;-69
2020/12/31 08:46:19;;;;;;;12.93;3.63;;;25.40;52.30;;;;;;6395312;22;20012;-70
2020/12/31 08:48:56;;;;;;;8.45;5.10;;;25.40;52.10;;;;;;6397207;22;20006;-69
2020/12/31 08:51:28;;;;;;;8.98;4.20;;;25.40;51.90;;;;;;6395486;22;19998;-69
2020/12/31 08:54:37;;;;;;;13.10;3.85;;;25.40;51.70;;;;;;6396289;22;20084;-80
2020/12/31 08:57:40;;;;;;;12.10;3.35;;;25.50;51.40;;;;;;6396351;22;20029;-77
2020/12/31 09:00:07;;;;;;;5.93;2.88;;;25.50;51.10;;;;;;6367078;22;20081;-68
2020/12/31 09:03:13;;;;;;;10.43;2.72;;;25.60;50.90;;;;;;6396046;22;20005;-79
2020/12/31 09:05:39;;;;;;;;;;;25.60;50.50;;;;;;6397798;22;20001;-81
2020/12/31 09:08:08;;;;;;;27.45;18.58;;;25.70;49.60;;;;;;6395348;22;19898;-69
2020/12/31 09:10:37;;;;;;;22.88;17.40;;;25.70;49.30;;;;;;6396355;22;20555;-80
2020/12/31 09:13:40;;;;;;;12.57;5.38;;;25.70;49.10;;;;;;6367989;22;20008;-82
2020/12/31 09:16:12;;;;;;;11.05;4.75;;;25.80;49.10;;;;;;6367021;22;20041;-80
2020/12/31 09:18:41;;;;;;;9.35;3.38;;;25.80;49.00;;;;;;6396279;22;20080;-73
2020/12/31 09:21:08;;;;;;;11.02;2.80;;;25.80;48.70;;;;;;6394263;22;20337;-77
2020/12/31 09:24:14;;;;;;;13.65;3.78;;;25.90;48.50;;;;;;6396710;22;20081;-74
2020/12/31 09:27:20;;;;;;;9.88;2.70;;;26.00;48.10;;;;;;6395979;22;20445;-69
2020/12/31 09:30:09;;;;;;;;;;;26.00;48.20;;;;;;6395936;22;20005;-72
2020/12/31 09:32:39;;;;;;;5.75;1.92;;;26.10;48.00;;;;;;6396454;22;19902;-76
2020/12/31 09:35:45;;;;;;;4.82;1.73;;;26.10;47.90;;;;;;6367568;22;20030;-79
2020/12/31 09:38:51;;;;;;;7.95;3.38;;;26.20;47.70;;;;;;6394243;22;20006;-72
2020/12/31 09:41:18;;;;;;;;;;;26.20;47.60;;;;;;6396346;22;20033;-70
2020/12/31 09:44:02;;;;;;;7.70;2.83;;;26.20;47.50;;;;;;6396104;22;19904;-76
2020/12/31 09:47:08;;;;;;;7.57;2.42;;;26.30;47.80;;;;;;6369505;22;20833;-77
2020/12/31 09:50:14;;;;;;;8.93;2.50;;;26.30;47.90;;;;;;6395553;22;20040;-75
2020/12/31 09:53:21;;;;;;;11.00;4.28;;;26.20;47.80;;;;;;6396612;22;20663;-79
2020/12/31 09:56:06;;;;;;;;;;;26.20;47.80;;;;;;6395874;22;20073;-71
2020/12/31 09:59:09;;;;;;;8.73;2.85;;;26.10;47.80;;;;;;6395671;22;20302;-70
2020/12/31 10:02:16;;;;;;;7.78;2.72;;;26.20;48.10;;;;;;6363418;22;20010;-78
2020/12/31 10:05:22;;;;;;;7.68;2.58;;;26.20;48.30;;;;;;6394256;22;20449;-76
2020/12/31 10:08:28;;;;;;;9.98;3.05;;;26.10;48.40;;;;;;6394900;22;20089;-68
2020/12/31 10:11:34;;;;;;;10.27;3.72;;;26.20;48.70;;;;;;6394648;22;20122;-70
2020/12/31 10:14:00;;;;;;;;;;;26.10;48.90;;;;;;6395537;22;20303;-70
2020/12/31 10:17:06;;;;;;;13.25;3.80;;;26.10;49.30;;;;;;6395454;22;19902;-70
2020/12/31 10:20:12;;;;;;;7.07;3.30;;;26.10;49.60;;;;;;6395647;22;20036;-68
2020/12/31 10:22:58;;;;;;;;;;;26.10;50.00;;;;;;6394164;22;20455;-69
2020/12/31 10:26:04;;;;;;;18.27;3.40;;;26.00;50.40;;;;;;6394543;22;19909;-75
2020/12/31 10:29:10;;;;;;;12.75;5.60;;;26.10;50.50;;;;;;6398811;22;20009;-75
2020/12/31 10:32:16;;;;;;;10.65;3.70;;;26.10;50.70;;;;;;6398259;22;20417;-80
2020/12/31 10:34:43;;;;;;;12.35;3.28;;;26.10;50.80;;;;;;6398034;22;20002;-76
2020/12/31 10:37:09;;;;;;;10.35;3.53;;;26.10;50.70;;;;;;6399396;22;20002;-79
2020/12/31 10:40:16;;;;;;;10.80;3.67;;;26.10;50.60;;;;;;6397931;22;20001;-82
2020/12/31 10:43:22;;;;;;;9.80;3.28;;;26.10;50.50;;;;;;6397676;22;20005;-77
2020/12/31 10:46:28;;;;;;;8.43;2.75;;;26.10;50.40;;;;;;6399645;22;20006;-80
2020/12/31 10:49:34;;;;;;;11.07;4.63;;;26.20;50.40;;;;;;6399437;22;20013;-79
2020/12/31 10:52:20;;;;;;;;;;;26.20;50.30;;;;;;6398691;22;20058;-83
2020/12/31 10:54:46;;;;;;;18.95;4.22;;;26.30;50.40;;;;;;6399966;22;19898;-83
2020/12/31 10:57:52;;;;;;;10.43;4.05;;;26.30;50.30;;;;;;6398661;22;20031;-82
2020/12/31 11:00:19;;;;;;;12.63;4.53;;;26.40;50.10;;;;;;6396892;22;20420;-77
2020/12/31 11:03:25;;;;;;;14.38;4.80;;;26.50;50.00;;;;;;6397894;22;20009;-76
2020/12/31 11:06:37;;;;;;;15.88;6.20;;;26.60;50.00;;;;;;6396821;22;20326;-71
2020/12/31 11:09:43;;;;;;;10.80;4.47;;;26.70;50.10;;;;;;6396880;22;20025;-84
2020/12/31 11:12:10;;;;;;;11.77;3.95;;;26.80;50.30;;;;;;6370227;22;20014;-71
2020/12/31 11:14:36;;;;;;;13.10;4.03;;;26.90;50.30;;;;;;6397727;22;19998;-82
2020/12/31 11:17:43;;;;;;;17.98;3.78;;;27.00;50.50;;;;;;6397807;22;20073;-81
2020/12/31 11:20:49;;;;;;;9.27;4.60;;;27.00;50.50;;;;;;6397239;22;20006;-74
2020/12/31 11:23:43;;;;;;;15.10;4.32;;;27.00;50.70;;;;;;6396927;22;20005;-78
2020/12/31 11:26:11;;;;;;;17.10;3.40;;;27.00;50.70;;;;;;6368697;22;20395;-81
2020/12/31 11:29:18;;;;;;;8.57;3.47;;;27.00;50.80;;;;;;6397808;22;20306;-72
2020/12/31 11:32:24;;;;;;;10.35;4.35;;;27.10;51.00;;;;;;6397255;22;20317;-72
2020/12/31 11:34:50;;;;;;;14.48;5.65;;;27.10;50.70;;;;;;6396023;22;20638;-68
2020/12/31 11:37:56;;;;;;;18.13;5.00;;;27.10;50.70;;;;;;6397541;22;20475;-68
2020/12/31 11:41:02;;;;;;;14.95;4.60;;;27.20;50.70;;;;;;6397065;22;19994;-72
2020/12/31 11:43:29;;;;;;;14.10;4.43;;;27.30;50.90;;;;;;6396266;22;20081;-74
2020/12/31 11:46:35;;;;;;;20.20;10.38;;;27.30;51.00;;;;;;6397948;22;20023;-81
2020/12/31 11:49:41;;;;;;;17.65;5.78;;;27.30;51.00;;;;;;6396181;22;19998;-71
2020/12/31 11:52:47;;;;;;;20.85;5.03;;;27.30;50.90;;;;;;6395252;22;20056;-80
2020/12/31 11:55:53;;;;;;;11.55;4.35;;;27.30;50.70;;;;;;6397605;22;19998;-77
2020/12/31 11:59:01;;;;;;;16.95;5.03;;;27.40;50.40;;;;;;6397036;22;19998;-77
2020/12/31 12:02:09;;;;;;;16.40;4.55;;;27.40;50.30;;;;;;6396535;22;20090;-72
2020/12/31 12:04:36;;;;;;;11.52;3.47;;;27.50;50.40;;;;;;6395761;22;20110;-77
2020/12/31 12:07:42;;;;;;;11.20;4.22;;;27.50;50.50;;;;;;6397829;22;20025;-77
2020/12/31 12:10:48;;;;;;;17.70;4.30;;;27.50;50.10;;;;;;6396075;22;20447;-84
2020/12/31 12:13:54;;;;;;;7.10;2.90;;;27.50;50.00;;;;;;6397752;22;19998;-77
2020/12/31 12:16:21;;;;;;;9.65;2.85;;;27.50;49.80;;;;;;6398180;22;20101;-69
2020/12/31 12:19:28;;;;;;;15.07;3.90;;;27.50;49.80;;;;;;6396294;22;20021;-82
2020/12/31 12:22:40;;;;;;;12.90;3.22;;;27.50;49.70;;;;;;6396071;22;20354;-71
2020/12/31 12:25:08;;;;;;;12.57;3.28;;;27.40;49.80;;;;;;6396637;22;20055;-73
2020/12/31 12:28:14;;;;;;;13.45;3.15;;;27.30;49.70;;;;;;6395349;22;19998;-73
2020/12/31 12:31:20;;;;;;;8.55;3.03;;;27.30;49.60;;;;;;6396080;22;19990;-68
2020/12/31 12:33:55;;;;;;;11.25;3.92;;;27.20;49.70;;;;;;6396837;22;20009;-70
2020/12/31 12:36:22;;;;;;;14.05;3.42;;;27.10;50.50;;;;;;6367548;22;20006;-71
2020/12/31 12:39:08;;;;;;;11.23;3.20;;;27.00;50.00;;;;;;6396616;22;20071;-68
2020/12/31 12:42:17;;;;;;;16.45;3.42;;;27.00;50.10;;;;;;6396018;22;20422;-67
2020/12/31 12:45:23;;;;;;;10.98;3.35;;;27.00;50.10;;;;;;6395321;22;20072;-70
2020/12/31 12:48:30;;;;;;;14.63;3.35;;;27.00;50.50;;;;;;6396350;22;20002;-70
2020/12/31 12:51:36;;;;;;;8.70;2.45;;;27.00;50.50;;;;;;6395950;22;20010;-67
2020/12/31 12:54:03;;;;;;;14.10;3.22;;;27.00;50.40;;;;;;6395584;22;19998;-68
2020/12/31 12:57:12;;;;;;;10.43;3.20;;;27.00;50.30;;;;;;6368038;22;20001;-69
2020/12/31 13:00:18;;;;;;;9.52;3.13;;;27.10;50.40;;;;;;6397116;22;20050;-74
2020/12/31 13:03:24;;;;;;;12.65;3.03;;;27.20;50.30;;;;;;6396030;22;20070;-68
2020/12/31 13:06:22;;;;;;;17.05;4.28;;;27.20;50.30;;;;;;6395136;22;19998;-70
2020/12/31 13:08:49;;;;;;;13.32;2.38;;;27.20;50.50;;;;;;6368563;22;19994;-68
2020/12/31 13:12:01;;;;;;;12.18;3.55;;;27.00;50.70;;;;;;6395224;22;20050;-72
2020/12/31 13:14:28;;;;;;;12.82;4.20;;;26.90;51.10;;;;;;6395577;22;20073;-69
2020/12/31 13:17:34;;;;;;;13.25;3.63;;;26.80;51.40;;;;;;6396927;22;20001;-71
2020/12/31 13:20:40;;;;;;;13.30;5.10;;;26.80;51.70;;;;;;6395842;22;20325;-68
2020/12/31 13:23:44;;;;;;;13.70;3.25;;;26.70;52.10;;;;;;6396054;22;20009;-69
2020/12/31 13:26:50;;;;;;;8.82;3.38;;;26.60;52.60;;;;;;6368202;22;20045;-73
2020/12/31 13:29:17;;;;;;;13.88;3.35;;;26.50;53.30;;;;;;6396836;22;20515;-67
2020/12/31 13:32:23;;;;;;;18.33;4.70;;;26.40;54.00;;;;;;6396156;22;20072;-74
2020/12/31 13:34:51;;;;;;;15.63;3.72;;;26.40;54.60;;;;;;6390322;22;20005;-86
2020/12/31 13:37:18;;;;;;;11.45;4.70;;;26.40;55.10;;;;;;6394979;22;20051;-70
2020/12/31 13:40:24;;;;;;;68.45;62.05;;;26.40;55.20;;;;;;6367675;22;20417;-72
2020/12/31 13:43:30;;;;;;;137.98;126.47;;;26.40;55.20;;;;;;6394503;22;20013;-73
2020/12/31 13:45:56;;;;;;;233.73;214.25;;;26.50;55.10;;;;;;6395344;22;20002;-73
2020/12/31 13:49:02;;;;;;;162.50;148.25;;;26.50;54.70;;;;;;6396131;22;20035;-71
2020/12/31 13:52:08;;;;;;;112.45;102.07;;;26.60;54.20;;;;;;6395564;22;20077;-80
2020/12/31 13:54:35;;;;;;;93.70;84.78;;;26.70;53.50;;;;;;6396333;22;20001;-73
2020/12/31 13:57:02;;;;;;;97.05;87.15;;;26.80;53.00;;;;;;6397475;22;20026;-76
2020/12/31 14:00:08;;;;;;;94.88;85.15;;;26.90;52.40;;;;;;6395446;22;20002;-69